Time;durP1;ratioP1;P1;durP2;ratioP2;P2;SDS_P1;SDS_P2;PMS_P1;PMS_P2;Temp;Humidity;BMP_temperature;BMP_pressure;BME280_temperature;BME280_humidity;BME280_pressure;Samples;Min_cycle;Max_cycle;Signal;HPM_P1;HPM_P2
2022/08/03 00:01:01;;;;;;;;;;;;;;;-140.72;100.00;52291.44;4950196;28;20032;-67
2022/08/03 00:03:27;;;;;;;;;;;;;;;-140.72;100.00;52295.50;4950242;29;20013;-67
2022/08/03 00:05:52;;;;;;;;;;;;;;;-140.72;100.00;52321.88;4950548;28;19923;-68
2022/08/03 00:08:19;;;;;;;;;;;;;;;-140.72;100.00;52281.28;4949831;29;20339;-67
2022/08/03 00:10:44;;;;;;;;;;;;;;;-140.72;100.00;52309.69;4943611;29;19969;-66
2022/08/03 00:13:11;;;;;;;;;;;;;;;-140.72;100.00;52327.97;4967891;28;19947;-66
2022/08/03 00:15:37;;;;;;;;;;;;;;;-140.72;100.00;52267.09;4947243;28;20381;-67
2022/08/03 00:18:02;;;;;;;;;;;;;;;-140.72;100.00;52327.97;4956004;28;19922;-66
2022/08/03 00:20:27;;;;;;;;;;;;;;;-140.72;100.00;52311.72;4956670;29;19946;-68
2022/08/03 00:22:53;;;;;;;;;;;;;;;-140.72;100.00;52311.72;4955661;29;19965;-67
2022/08/03 00:25:18;;;;;;;;;;;;;;;-140.72;100.00;52321.88;4943901;29;19923;-68
2022/08/03 00:27:43;;;;;;;;;;;;;;;-140.72;100.00;52293.47;4950075;29;19935;-67
2022/08/03 00:30:08;;;;;;;;;;;;;;;-140.72;100.00;52323.91;4947266;29;19918;-67
2022/08/03 00:32:34;;;;;;;;;;;;;;;-140.72;100.00;52325.94;4954690;28;20030;-68
2022/08/03 00:34:59;;;;;;;;;;;;;;;-140.72;100.00;52303.59;4948298;29;20002;-67
2022/08/03 00:37:24;;;;;;;;;;;;;;;-140.72;100.00;52354.34;4955057;29;19918;-66
2022/08/03 00:39:49;;;;;;;;;;;;;;;-140.72;100.00;52311.72;4955311;28;20355;-67
2022/08/03 00:42:15;;;;;;;;;;;;;;;-140.72;100.00;52330.00;4949487;29;19926;-67
2022/08/03 00:44:40;;;;;;;;;;;;;;;-140.72;100.00;52336.06;4952605;29;19919;-68
2022/08/03 00:47:06;;;;;;;;;;;;;;;-140.72;100.00;52334.03;4946188;29;20073;-67
2022/08/03 00:49:31;;;;;;;;;;;;;;;-140.72;100.00;52332.03;4943197;29;20211;-67
2022/08/03 00:51:58;;;;;;;;;;;;;;;-140.72;100.00;52364.47;4955834;29;20363;-68
2022/08/03 00:54:23;;;;;;;;;;;;;;;-140.72;100.00;52332.03;4951248;29;20092;-67
2022/08/03 00:56:49;;;;;;;;;;;;;;;-140.72;100.00;52321.88;4947531;29;20402;-67
2022/08/03 00:59:15;;;;;;;;;;;;;;;-140.72;100.00;52313.75;4955448;28;20389;-66
2022/08/03 01:01:40;;;;;;;;;;;;;;;-140.72;100.00;52346.22;4947764;29;19953;-67
2022/08/03 01:04:06;;;;;;;;;;;;;;;-140.72;100.00;52323.91;4956338;29;20024;-67
2022/08/03 01:06:45;;;;;;;;;;;;;;;-140.72;100.00;52358.41;4956051;29;19922;-67
2022/08/03 01:09:25;;;;;;;;;;;;;;;-140.72;100.00;52358.41;4943094;29;19938;-67
2022/08/03 01:12:09;;;;;;;;;;;;;;;-140.72;100.00;52346.22;4936593;29;19918;-66
2022/08/03 01:14:35;;;;;;;;;;;;;;;-140.72;100.00;52342.16;4938903;29;19919;-68
2022/08/03 01:17:24;;;;;;;;;;;;;;;-140.72;100.00;52370.56;4955757;29;20354;-68
2022/08/03 01:19:59;;;;;;;;;;;;;;;-140.72;100.00;52378.69;4956052;29;19923;-67
2022/08/03 01:22:35;;;;;;;;;;;;;;;-140.72;100.00;52372.59;4956862;28;19930;-67
2022/08/03 01:25:06;;;;;;;;;;;;;;;-140.72;100.00;52378.69;4954463;29;19919;-67
2022/08/03 01:27:34;;;;;;;;;;;;;;;-140.72;100.00;52360.44;4953819;28;19978;-66
2022/08/03 01:29:59;;;;;;;;;;;;;;;-140.72;100.00;52346.22;4963801;29;19920;-67
2022/08/03 01:32:30;;;;;;;;;;;;;;;-140.72;100.00;52370.56;4960078;29;20377;-67
2022/08/03 01:35:01;;;;;;;;;;;;;;;-140.72;100.00;52317.81;4951333;28;19922;-68
2022/08/03 01:37:34;;;;;;;;;;;;;;;-140.72;100.00;52352.31;4954957;29;20016;-67
2022/08/03 01:40:01;;;;;;;;;;;;;;;-140.72;100.00;52364.47;4953303;29;20006;-66
2022/08/03 01:42:28;;;;;;;;;;;;;;;-140.72;100.00;52340.13;4952437;29;19965;-67
2022/08/03 01:44:55;;;;;;;;;;;;;;;-140.72;100.00;52342.16;4953088;29;19922;-66
2022/08/03 01:47:21;;;;;;;;;;;;;;;-140.72;100.00;52346.22;4951380;29;19918;-68
2022/08/03 01:49:47;;;;;;;;;;;;;;;-140.72;100.00;52380.72;4957860;29;19919;-68
2022/08/03 01:52:13;;;;;;;;;;;;;;;-140.72;100.00;52370.56;4958515;29;19933;-66
2022/08/03 01:54:43;;;;;;;;;;;;;;;-140.72;100.00;52366.50;4940186;29;19918;-67
2022/08/03 01:57:08;;;;;;;;;;;;;;;-140.72;100.00;52384.78;4946058;29;19926;-68
2022/08/03 01:59:34;;;;;;;;;;;;;;;-140.72;100.00;52382.75;4940481;29;19918;-68
2022/08/03 02:02:00;;;;;;;;;;;;;;;-140.72;100.00;52380.72;4959277;29;19918;-68
2022/08/03 02:04:27;;;;;;;;;;;;;;;-140.72;100.00;52362.44;4958174;29;19926;-67
2022/08/03 02:06:53;;;;;;;;;;;;;;;-140.72;100.00;52354.34;4945825;29;19918;-66
2022/08/03 02:09:20;;;;;;;;;;;;;;;-140.72;100.00;52386.81;4954836;29;20025;-68
2022/08/03 02:11:46;;;;;;;;;;;;;;;-140.72;100.00;52380.72;4951973;29;20055;-67
2022/08/03 02:14:13;;;;;;;;;;;;;;;-140.72;100.00;52421.28;4939353;29;20324;-68
2022/08/03 02:16:39;;;;;;;;;;;;;;;-140.72;100.00;52362.44;4953717;29;19974;-67
2022/08/03 02:19:06;;;;;;;;;;;;;;;-140.72;100.00;52380.72;4954408;29;19919;-67
2022/08/03 02:21:32;;;;;;;;;;;;;;;-140.72;100.00;52388.84;4958054;28;19919;-67
2022/08/03 02:23:57;;;;;;;;;;;;;;;-140.72;100.00;52366.50;4955786;28;19918;-67
2022/08/03 02:26:23;;;;;;;;;;;;;;;-140.72;100.00;52382.75;4954560;29;19926;-67
2022/08/03 02:28:50;;;;;;;;;;;;;;;-140.72;100.00;52370.56;4957262;28;20330;-68
2022/08/03 02:31:18;;;;;;;;;;;;;;;-140.72;100.00;52390.84;4954744;28;20353;-67
2022/08/03 02:33:47;;;;;;;;;;;;;;;-140.72;100.00;52370.56;4974313;23;20473;-65
2022/08/03 02:36:14;;;;;;;;;;;;;;;-140.72;100.00;52417.25;4981913;28;19918;-66
2022/08/03 02:38:41;;;;;;;;;;;;;;;-140.72;100.00;52390.84;4989510;28;20289;-67
2022/08/03 02:41:07;;;;;;;;;;;;;;;-140.72;100.00;52388.84;5001065;28;19949;-66
2022/08/03 02:43:34;;;;;;;;;;;;;;;-140.72;100.00;52376.66;4984072;28;19969;-66
2022/08/03 02:45:59;;;;;;;;;;;;;;;-140.72;100.00;52378.69;4990882;28;19922;-65
2022/08/03 02:48:27;;;;;;;;;;;;;;;-140.72;100.00;52407.09;4984309;28;19973;-66
2022/08/03 02:50:53;;;;;;;;;;;;;;;-140.72;100.00;52403.03;4984765;28;20012;-66
2022/08/03 02:53:20;;;;;;;;;;;;;;;-140.72;100.00;52392.88;4984771;28;19972;-66
2022/08/03 02:55:46;;;;;;;;;;;;;;;-140.72;100.00;52390.84;4978558;28;19918;-66
2022/08/03 02:58:12;;;;;;;;;;;;;;;-140.72;100.00;52425.34;4979768;28;19925;-65
2022/08/03 03:00:38;;;;;;;;;;;;;;;-140.72;100.00;52366.50;4977241;28;19918;-66
2022/08/03 03:03:05;;;;;;;;;;;;;;;-140.72;100.00;52403.03;4989468;28;20381;-66
2022/08/03 03:05:30;;;;;;;;;;;;;;;-140.72;100.00;52435.50;4981363;28;19993;-65
2022/08/03 03:07:56;;;;;;;;;;;;;;;-140.72;100.00;52417.25;4977574;28;20456;-65
2022/08/03 03:10:21;;;;;;;;;;;;;;;-140.72;100.00;52368.53;4981091;28;19925;-66
2022/08/03 03:12:49;;;;;;;;;;;;;;;-140.72;100.00;52405.06;4987825;28;19922;-65
2022/08/03 03:15:14;;;;;;;;;;;;;;;-140.72;100.00;52407.09;4987272;28;19922;-66
2022/08/03 03:17:40;;;;;;;;;;;;;;;-140.72;100.00;52384.78;4993576;28;20377;-66
2022/08/03 03:20:06;;;;;;;;;;;;;;;-140.72;100.00;52394.91;4995025;28;20285;-65
2022/08/03 03:22:33;;;;;;;;;;;;;;;-140.72;100.00;52386.81;4991753;28;19918;-66
2022/08/03 03:24:58;;;;;;;;;;;;;;;-140.72;100.00;52407.09;4985096;28;19918;-67
2022/08/03 03:27:24;;;;;;;;;;;;;;;-140.72;100.00;52409.13;4981921;28;19943;-66
2022/08/03 03:29:49;;;;;;;;;;;;;;;-140.72;100.00;52398.97;4996554;28;19924;-65
2022/08/03 03:32:14;;;;;;;;;;;;;;;-140.72;100.00;52419.28;4992687;28;19917;-66
2022/08/03 03:34:41;;;;;;;;;;;;;;;-140.72;100.00;52394.91;4986842;28;19922;-66
2022/08/03 03:37:06;;;;;;;;;;;;;;;-140.72;100.00;52388.84;4974481;28;19981;-66
2022/08/03 03:39:32;;;;;;;;;;;;;;;-140.72;100.00;52390.84;4983486;28;20373;-65
2022/08/03 03:41:58;;;;;;;;;;;;;;;-140.72;100.00;52411.16;4978903;28;20274;-66
2022/08/03 03:44:27;;;;;;;;;;;;;;;-140.72;100.00;52417.25;4974416;28;19965;-66
2022/08/03 03:46:53;;;;;;;;;;;;;;;-140.72;100.00;52427.38;4987555;28;19964;-66
2022/08/03 03:49:18;;;;;;;;;;;;;;;-140.72;100.00;52419.28;4974532;28;19961;-66
2022/08/03 03:51:43;;;;;;;;;;;;;;;-140.72;100.00;52415.22;4987159;28;19927;-65
2022/08/03 03:54:08;;;;;;;;;;;;;;;-140.72;100.00;52445.66;4975482;28;20278;-65
2022/08/03 03:56:34;;;;;;;;;;;;;;;-140.72;100.00;52396.94;4963892;28;19950;-66
2022/08/03 03:58:59;;;;;;;;;;;;;;;-140.72;100.00;52419.28;4976346;28;20318;-69
2022/08/03 04:01:24;;;;;;;;;;;;;;;-140.72;100.00;52439.56;4970731;28;19966;-71
2022/08/03 04:10:57;;;;;;;;;;;;;;;-140.72;100.00;52435.50;4979065;28;19953;-71
2022/08/03 04:12:17;;;;;;;;;;;;;;;-140.72;100.00;52443.63;4987447;28;19913;-71
2022/08/03 04:14:43;;;;;;;;;;;;;;;-140.72;100.00;52419.28;4984953;28;19981;-70
2022/08/03 04:17:10;;;;;;;;;;;;;;;-140.72;100.00;52392.88;4961506;28;19918;-71
2022/08/03 04:19:37;;;;;;;;;;;;;;;-140.72;100.00;52459.84;4966887;28;19945;-72
2022/08/03 04:22:05;;;;;;;;;;;;;;;-140.72;100.00;52411.16;4974786;28;19969;-74
2022/08/03 04:24:33;;;;;;;;;;;;;;;-140.72;100.00;52427.38;4962455;28;19973;-73
2022/08/03 04:26:59;;;;;;;;;;;;;;;-140.72;100.00;52431.44;4971172;28;19985;-70
2022/08/03 04:29:33;;;;;;;;;;;;;;;-140.72;100.00;52451.72;4968087;28;19922;-69
2022/08/03 04:31:59;;;;;;;;;;;;;;;-140.72;100.00;52453.75;4965218;28;20433;-70
2022/08/03 04:34:24;;;;;;;;;;;;;;;-140.72;100.00;52429.41;4982434;28;20017;-69
2022/08/03 04:36:51;;;;;;;;;;;;;;;-140.72;100.00;52421.28;4971665;28;20329;-70
2022/08/03 04:39:19;;;;;;;;;;;;;;;-140.72;100.00;52459.84;4974243;28;20285;-76
2022/08/03 04:41:44;;;;;;;;;;;;;;;-140.72;100.00;52407.09;4964656;28;20575;-71
2022/08/03 04:44:10;;;;;;;;;;;;;;;-140.72;100.00;52411.16;4967216;28;19918;-71
2022/08/03 04:46:37;;;;;;;;;;;;;;;-140.72;100.00;52443.63;4956439;28;19918;-73
2022/08/03 04:49:03;;;;;;;;;;;;;;;-140.72;100.00;52415.22;4966520;28;19964;-72
2022/08/03 04:51:28;;;;;;;;;;;;;;;-140.72;100.00;52435.50;4974803;28;20328;-81
2022/08/03 04:53:53;;;;;;;;;;;;;;;-140.72;100.00;52403.03;4976137;28;19922;-73
2022/08/03 04:56:19;;;;;;;;;;;;;;;-140.72;100.00;52392.88;4986694;28;19926;-74
2022/08/03 04:58:44;;;;;;;;;;;;;;;-140.72;100.00;52421.28;4975603;28;19922;-73
2022/08/03 05:01:10;;;;;;;;;;;;;;;-140.72;100.00;52425.34;4970444;28;20298;-73
2022/08/03 05:03:35;;;;;;;;;;;;;;;-140.72;100.00;52451.72;4968536;28;19925;-72
2022/08/03 05:06:00;;;;;;;;;;;;;;;-140.72;100.00;52413.19;4973800;28;19922;-74
2022/08/03 05:08:26;;;;;;;;;;;;;;;-140.72;100.00;52384.78;4974565;28;19933;-72
2022/08/03 05:10:51;;;;;;;;;;;;;;;-140.72;100.00;52431.44;4955049;28;19918;-74
2022/08/03 05:13:16;;;;;;;;;;;;;;;-140.72;100.00;52362.44;4964666;28;19919;-73
2022/08/03 05:15:42;;;;;;;;;;;;;;;-140.72;100.00;52403.03;4974474;28;19918;-72
2022/08/03 05:21:13;;;;;;;;;;;;;;;-140.72;100.00;52415.22;4960956;28;19945;-72
2022/08/03 05:23:38;;;;;;;;;;;;;;;-140.72;100.00;52396.94;4973961;28;19918;-70
2022/08/03 05:26:03;;;;;;;;;;;;;;;-140.72;100.00;52415.22;4974867;28;20449;-71
2022/08/03 05:28:29;;;;;;;;;;;;;;;-140.72;100.00;52427.38;4970173;28;19922;-70
2022/08/03 05:30:54;;;;;;;;;;;;;;;-140.72;100.00;52374.63;4975165;28;19922;-68
2022/08/03 05:33:19;;;;;;;;;;;;;;;-140.72;100.00;52407.09;4974268;28;20318;-69
2022/08/03 05:35:45;;;;;;;;;;;;;;;-140.72;100.00;52396.94;4972824;28;19918;-72
2022/08/03 05:38:10;;;;;;;;;;;;;;;-140.72;100.00;52415.22;4965218;28;20363;-72
2022/08/03 05:40:35;;;;;;;;;;;;;;;-140.72;100.00;52411.16;4955327;28;19981;-74
2022/08/03 05:43:01;;;;;;;;;;;;;;;-140.72;100.00;52413.19;4966137;28;19918;-72
2022/08/03 05:45:33;;;;;;;;;;;;;;;-140.72;100.00;52394.91;4953967;29;20420;-73
2022/08/03 05:47:58;;;;;;;;;;;;;;;-140.72;100.00;52352.31;4971590;28;19977;-73
2022/08/03 05:50:24;;;;;;;;;;;;;;;-140.72;100.00;52398.97;4984676;28;19954;-73
2022/08/03 05:52:49;;;;;;;;;;;;;;;-140.72;100.00;52374.63;4989465;28;19925;-73
2022/08/03 05:55:14;;;;;;;;;;;;;;;-140.72;100.00;52409.13;4964445;28;19918;-73
2022/08/03 05:57:40;;;;;;;;;;;;;;;-140.72;100.00;52382.75;4989608;28;19922;-73
2022/08/03 06:00:06;;;;;;;;;;;;;;;-140.72;100.00;52382.75;4997402;28;19918;-73
2022/08/03 06:02:32;;;;;;;;;;;;;;;-140.72;100.00;52403.03;4985667;28;19918;-73
2022/08/03 06:04:57;;;;;;;;;;;;;;;-140.72;100.00;52386.81;4965130;28;19919;-72
2022/08/03 06:07:22;;;;;;;;;;;;;;;-140.72;100.00;52398.97;4976821;28;19972;-77
2022/08/03 06:09:47;;;;;;;;;;;;;;;-140.72;100.00;52390.84;4978253;28;19953;-75
2022/08/03 06:12:13;;;;;;;;;;;;;;;-140.72;100.00;52388.84;4969290;28;19922;-69
2022/08/03 06:14:38;;;;;;;;;;;;;;;-140.72;100.00;52370.56;4976215;28;19926;-71
2022/08/03 06:17:03;;;;;;;;;;;;;;;-140.72;100.00;52348.25;4987461;28;19922;-77
2022/08/03 06:19:28;;;;;;;;;;;;;;;-140.72;100.00;52388.84;4977842;28;19930;-70
2022/08/03 06:21:54;;;;;;;;;;;;;;;-140.72;100.00;52378.69;4967923;28;19922;-71
2022/08/03 06:24:19;;;;;;;;;;;;;;;-140.72;100.00;52368.53;4972829;28;20347;-74
2022/08/03 06:26:44;;;;;;;;;;;;;;;-140.72;100.00;52370.56;4969658;28;20410;-73
2022/08/03 06:29:10;;;;;;;;;;;;;;;-140.72;100.00;52350.28;4973699;28;20378;-73
2022/08/03 06:31:35;;;;;;;;;;;;;;;-140.72;100.00;52346.22;4971342;28;20008;-76
2022/08/03 06:34:01;;;;;;;;;;;;;;;-140.72;100.00;52374.63;4975285;28;19933;-77
2022/08/03 06:36:30;;;;;;;;;;;;;;;-140.72;100.00;52325.94;4973497;28;19966;-72
2022/08/03 06:38:55;;;;;;;;;;;;;;;-140.72;100.00;52366.50;4971829;28;19918;-72
2022/08/03 06:41:22;;;;;;;;;;;;;;;-140.72;100.00;52334.03;4968536;28;19918;-72
2022/08/03 06:43:48;;;;;;;;;;;;;;;-140.72;100.00;52352.31;4970197;28;19954;-73
2022/08/03 06:46:13;;;;;;;;;;;;;;;-140.72;100.00;52366.50;4974578;28;20401;-74
2022/08/03 06:48:38;;;;;;;;;;;;;;;-140.72;100.00;52384.78;4976010;28;19965;-73
2022/08/03 06:51:03;;;;;;;;;;;;;;;-140.72;100.00;52360.44;4977762;28;19926;-75
2022/08/03 06:53:28;;;;;;;;;;;;;;;-140.72;100.00;52370.56;4966062;28;19922;-70
2022/08/03 06:55:54;;;;;;;;;;;;;;;-140.72;100.00;52352.31;4969529;28;19922;-70
2022/08/03 06:58:21;;;;;;;;;;;;;;;-140.72;100.00;52350.28;4976463;28;19962;-67
2022/08/03 07:00:47;;;;;;;;;;;;;;;-140.72;100.00;52311.72;4970239;28;19925;-67
2022/08/03 07:03:12;;;;;;;;;;;;;;;-140.72;100.00;52346.22;4985958;28;19918;-67
2022/08/03 07:05:37;;;;;;;;;;;;;;;-140.72;100.00;52350.28;4985636;28;19926;-67
2022/08/03 07:08:02;;;;;;;;;;;;;;;-140.72;100.00;52319.84;4975573;28;19925;-67
2022/08/03 07:10:28;;;;;;;;;;;;;;;-140.72;100.00;52334.03;4973157;28;19941;-68
2022/08/03 07:12:53;;;;;;;;;;;;;;;-140.72;100.00;52342.16;4966666;28;19930;-66
2022/08/03 07:15:18;;;;;;;;;;;;;;;-140.72;100.00;52346.22;4972223;28;20004;-67
2022/08/03 07:17:44;;;;;;;;;;;;;;;-140.72;100.00;52295.50;4970278;28;19930;-66
2022/08/03 07:20:09;;;;;;;;;;;;;;;-140.72;100.00;52346.22;4967873;28;19925;-66
2022/08/03 07:22:34;;;;;;;;;;;;;;;-140.72;100.00;52334.03;4972816;28;19918;-69
2022/08/03 07:25:00;;;;;;;;;;;;;;;-140.72;100.00;52338.09;4965564;28;20371;-69
2022/08/03 07:27:29;;;;;;;;;;;;;;;-140.72;100.00;52344.19;4972819;28;20387;-70
2022/08/03 07:29:54;;;;;;;;;;;;;;;-140.72;100.00;52336.06;4965862;28;20306;-70
2022/08/03 07:32:19;;;;;;;;;;;;;;;-140.72;100.00;52348.25;4975135;28;19919;-69
2022/08/03 07:34:45;;;;;;;;;;;;;;;-140.72;100.00;52297.53;4973666;28;20017;-70
2022/08/03 07:37:10;;;;;;;;;;;;;;;-140.72;100.00;52319.84;4974687;28;19925;-77
2022/08/03 07:39:35;;;;;;;;;;;;;;;-140.72;100.00;52334.03;4974935;28;19918;-70
2022/08/03 07:42:00;;;;;;;;;;;;;;;-140.72;100.00;52374.63;4964847;28;21658;-74
2022/08/03 07:44:26;;;;;;;;;;;;;;;-140.72;100.00;52330.00;4966773;28;20289;-76
2022/08/03 07:46:51;;;;;;;;;;;;;;;-140.72;100.00;52305.63;4970187;28;20386;-70
2022/08/03 07:49:16;;;;;;;;;;;;;;;-140.72;100.00;52293.47;4966707;28;20405;-71
2022/08/03 07:51:41;;;;;;;;;;;;;;;-140.72;100.00;52321.88;4970396;28;19925;-71
2022/08/03 07:54:08;;;;;;;;;;;;;;;-140.72;100.00;52301.59;4970098;28;20446;-71
2022/08/03 07:56:34;;;;;;;;;;;;;;;-140.72;100.00;52336.06;4961512;28;19919;-71
2022/08/03 07:58:59;;;;;;;;;;;;;;;-140.72;100.00;52271.16;4962617;28;19922;-72
2022/08/03 08:01:24;;;;;;;;;;;;;;;-140.72;100.00;52315.78;4966641;28;20374;-72
2022/08/03 08:03:50;;;;;;;;;;;;;;;-140.72;100.00;52281.28;4962577;28;19925;-73
2022/08/03 08:06:16;;;;;;;;;;;;;;;-140.72;100.00;52299.56;4966881;28;20385;-71
2022/08/03 08:08:42;;;;;;;;;;;;;;;-140.72;100.00;52289.41;4980612;28;20298;-71
2022/08/03 08:11:07;;;;;;;;;;;;;;;-140.72;100.00;52305.63;4984286;28;19973;-73
2022/08/03 08:13:32;;;;;;;;;;;;;;;-140.72;100.00;52261.00;4970387;28;19929;-72
2022/08/03 08:15:57;;;;;;;;;;;;;;;-140.72;100.00;52232.59;4967416;28;20275;-72
2022/08/03 08:18:23;;;;;;;;;;;;;;;-140.72;100.00;52240.72;4985866;28;20013;-73
2022/08/03 08:20:48;;;;;;;;;;;;;;;-140.72;100.00;52232.59;4964056;28;19918;-75
2022/08/03 08:23:13;;;;;;;;;;;;;;;-140.72;100.00;52256.94;4965554;28;19929;-77
2022/08/03 08:25:38;;;;;;;;;;;;;;;-140.72;100.00;52252.88;4960893;28;20069;-78
2022/08/03 08:28:04;;;;;;;;;;;;;;;-140.72;100.00;52256.94;4965664;28;20391;-80
2022/08/03 08:30:30;;;;;;;;;;;;;;;-140.72;100.00;52252.88;4962875;28;19918;-75
2022/08/03 08:32:56;;;;;;;;;;;;;;;-140.72;100.00;52265.06;4980514;28;20009;-78
2022/08/03 08:35:21;;;;;;;;;;;;;;;-140.72;100.00;52234.63;4974439;28;19969;-76
2022/08/03 08:37:47;;;;;;;;;;;;;;;-140.72;100.00;52236.66;4968275;28;19923;-77
2022/08/03 08:40:12;;;;;;;;;;;;;;;-140.72;100.00;52208.25;4987509;28;19922;-76
2022/08/03 08:42:37;;;;;;;;;;;;;;;-140.72;100.00;52208.25;4976182;28;19965;-77
2022/08/03 08:45:07;;;;;;;;;;;;;;;-140.72;100.00;52187.97;4964460;28;19925;-75
2022/08/03 08:47:35;;;;;;;;;;;;;;;-140.72;100.00;52204.19;4976548;28;20025;-77
2022/08/03 08:50:01;;;;;;;;;;;;;;;-140.72;100.00;52185.94;5003770;28;20001;-77
2022/08/03 08:52:27;;;;;;;;;;;;;;;-140.72;100.00;52161.56;4992201;28;19952;-75
2022/08/03 08:54:55;;;;;;;;;;;;;;;-140.72;100.00;52163.59;4961989;28;19918;-72
2022/08/03 08:57:21;;;;;;;;;;;;;;;-140.72;100.00;52145.34;4972098;28;19918;-73
2022/08/03 08:59:46;;;;;;;;;;;;;;;-140.72;100.00;52141.28;4962406;28;19980;-78
2022/08/03 09:02:11;;;;;;;;;;;;;;;-140.72;100.00;52066.22;4964889;28;19974;-73
2022/08/03 09:04:38;;;;;;;;;;;;;;;-140.72;100.00;52123.03;4965583;28;19922;-72
2022/08/03 09:07:04;;;;;;;;;;;;;;;-140.72;100.00;52068.25;4965765;28;19922;-73
2022/08/03 09:09:29;;;;;;;;;;;;;;;-140.72;100.00;52082.44;4965460;28;19926;-73
2022/08/03 09:11:55;;;;;;;;;;;;;;;-140.72;100.00;52076.34;4980115;28;19929;-73
2022/08/03 09:14:20;;;;;;;;;;;;;;;-140.72;100.00;52064.19;4974133;28;19946;-73
2022/08/03 09:17:01;;;;;;;;;;;;;;;-140.72;0.00;52054.03;4973521;28;20005;-74
2022/08/03 09:19:27;;;;;;;;;;;;;;;-140.72;0.00;52072.31;4974758;28;19922;-70
2022/08/03 09:22:22;;;;;;;;;;;;;;;-140.72;0.00;52033.75;4963812;28;19930;-70
2022/08/03 09:24:57;;;;;;;;;;;;;;;-140.72;0.00;52015.50;4962055;28;19925;-69
2022/08/03 09:27:23;;;;;;;;;;;;;;;-140.72;0.00;52001.28;4960967;28;19919;-67
2022/08/03 09:29:50;;;;;;;;;;;;;;;-140.72;0.00;51983.03;4975950;28;19973;-67
2022/08/03 09:32:18;;;;;;;;;;;;;;;-140.72;0.00;51960.72;4962018;28;19918;-67
2022/08/03 09:34:45;;;;;;;;;;;;;;;-140.72;0.00;51950.56;4960814;28;19923;-67
2022/08/03 09:37:14;;;;;;;;;;;;;;;-140.72;0.00;51905.94;4962179;28;19918;-68
2022/08/03 09:39:40;;;;;;;;;;;;;;;-140.72;0.00;51928.25;4959711;28;19919;-67
2022/08/03 09:42:16;;;;;;;;;;;;;;;-140.72;0.00;51932.31;4972262;28;19918;-67
2022/08/03 09:44:42;;;;;;;;;;;;;;;-140.72;0.00;51958.69;4962431;28;19965;-74
2022/08/03 09:47:10;;;;;;;;;;;;;;;-140.72;0.00;51905.94;4987604;28;20300;-69
2022/08/03 09:49:36;;;;;;;;;;;;;;;-140.72;0.00;51920.13;4981656;28;19918;-70
2022/08/03 09:52:10;;;;;;;;;;;;;;;-140.72;0.00;51907.97;4977846;28;19988;-71
2022/08/03 09:54:35;;;;;;;;;;;;;;;-140.72;0.00;51893.75;4983229;28;19918;-68
2022/08/03 09:57:01;;;;;;;;;;;;;;;-140.72;0.00;51881.59;4984988;28;19925;-68
2022/08/03 09:59:27;;;;;;;;;;;;;;;-140.72;0.00;51855.22;4983415;28;19918;-70
2022/08/03 10:01:53;;;;;;;;;;;;;;;-140.72;0.00;51879.56;4989477;28;20389;-82
2022/08/03 10:04:18;;;;;;;;;;;;;;;-140.72;0.00;51861.28;4989890;28;20362;-66
2022/08/03 10:06:44;;;;;;;;;;;;;;;-140.72;0.00;51830.88;4978952;28;19926;-68
2022/08/03 10:09:12;;;;;;;;;;;;;;;-140.72;0.00;51826.81;4978355;28;19975;-67
2022/08/03 10:11:38;;;;;;;;;;;;;;;-140.72;0.00;51802.47;4976814;28;19946;-66
2022/08/03 10:14:04;;;;;;;;;;;;;;;-140.72;0.00;51822.75;4979875;28;20530;-68
2022/08/03 10:16:37;;;;;;;;;;;;;;;-140.72;0.00;51794.34;4995408;28;19924;-66
2022/08/03 10:19:06;;;;;;;;;;;;;;;-140.72;0.00;51786.22;4976498;28;19918;-67
2022/08/03 10:21:33;;;;;;;;;;;;;;;-140.72;0.00;51747.69;4966543;28;20325;-67
2022/08/03 10:24:01;;;;;;;;;;;;;;;-140.72;0.00;51772.03;4975410;28;19918;-67
2022/08/03 10:26:27;;;;;;;;;;;;;;;-140.72;0.00;51830.88;4967652;28;19918;-67
2022/08/03 10:28:53;;;;;;;;;;;;;;;-140.72;0.00;51838.97;4995312;28;19984;-67
2022/08/03 10:31:20;;;;;;;;;;;;;;;-140.72;0.00;51816.66;4980920;28;19925;-67
2022/08/03 10:33:48;;;;;;;;;;;;;;;-140.72;0.00;51729.44;4971886;28;19925;-68
2022/08/03 10:36:15;;;;;;;;;;;;;;;-140.72;0.00;51692.91;4962325;28;20306;-67
2022/08/03 10:38:45;;;;;;;;;;;;;;;-140.72;0.00;51709.13;4965643;28;19917;-68
2022/08/03 10:41:11;;;;;;;;;;;;;;;-140.72;0.00;51713.19;4960607;28;19965;-67
2022/08/03 10:43:39;;;;;;;;;;;;;;;-140.72;0.00;51723.34;4965458;28;19918;-67
2022/08/03 10:46:06;;;;;;;;;;;;;;;-140.72;0.00;51745.66;4974300;28;19974;-66
2022/08/03 10:48:31;;;;;;;;;;;;;;;-140.72;0.00;51688.84;4974807;28;20366;-67
2022/08/03 10:50:57;;;;;;;;;;;;;;;-140.72;0.00;51723.34;5011089;28;19965;-66
2022/08/03 10:53:42;;;;;;;;;;;;;;;-140.72;0.00;51694.94;4996532;28;19918;-67
2022/08/03 10:59:10;;;;;;;;;;;;;;;-140.72;0.00;51729.44;4979756;28;20441;-67
2022/08/03 11:02:01;;;;;;;;;;;;;;;-140.72;0.00;51703.06;4976620;28;19922;-67
2022/08/03 11:04:28;;;;;;;;;;;;;;;-140.72;0.00;51709.13;4953168;28;20266;-67
2022/08/03 11:07:12;;;;;;;;;;;;;;;-140.72;0.00;51654.34;4983641;28;19918;-66
2022/08/03 11:09:41;;;;;;;;;;;;;;;-140.72;0.00;51672.63;4986531;28;19917;-66
2022/08/03 11:12:20;;;;;;;;;;;;;;;-140.72;0.00;51632.03;4982649;28;20441;-66
2022/08/03 11:14:46;;;;;;;;;;;;;;;-140.72;0.00;51699.00;4995787;28;20289;-67
2022/08/03 11:17:11;;;;;;;;;;;;;;;-140.72;0.00;51648.28;4988962;28;19918;-66
2022/08/03 11:19:47;;;;;;;;;;;;;;;-140.72;0.00;51644.22;4976311;28;19924;-66
2022/08/03 11:22:12;;;;;;;;;;;;;;;-140.72;0.00;51640.16;4965854;28;19968;-67
2022/08/03 11:24:46;;;;;;;;;;;;;;;-140.72;0.00;51628.00;4969196;28;20362;-65
2022/08/03 11:27:17;;;;;;;;;;;;;;;-140.72;0.00;51611.75;4975479;28;19922;-67
2022/08/03 11:29:55;;;;;;;;;;;;;;;-140.72;0.00;51615.81;4979106;28;19945;-67
2022/08/03 11:32:36;;;;;;;;;;;;;;;-140.72;0.00;51621.91;4961070;28;19922;-66
2022/08/03 11:35:08;;;;;;;;;;;;;;;-140.72;0.00;51644.22;4976135;28;19922;-66
2022/08/03 11:37:34;;;;;;;;;;;;;;;-140.72;0.00;51607.69;4974538;28;19961;-66
2022/08/03 11:40:00;;;;;;;;;;;;;;;-140.72;0.00;51658.41;4986509;28;20404;-68
2022/08/03 11:42:26;;;;;;;;;;;;;;;-140.72;0.00;51563.06;4984394;28;20013;-66
2022/08/03 11:44:56;;;;;;;;;;;;;;;-140.72;0.00;51636.09;4963605;28;19949;-67
2022/08/03 11:47:21;;;;;;;;;;;;;;;-140.72;0.00;51565.09;4964323;28;19918;-66
2022/08/03 11:49:47;;;;;;;;;;;;;;;-140.72;0.00;51575.25;4982668;28;19972;-66
2022/08/03 11:52:13;;;;;;;;;;;;;;;-140.72;0.00;51510.31;4998245;28;19918;-66
2022/08/03 11:54:39;;;;;;;;;;;;;;;-140.72;0.00;51573.22;4981477;28;19945;-66
2022/08/03 11:57:04;;;;;;;;;;;;;;;-140.72;0.00;51485.97;4981417;28;20385;-66
2022/08/03 11:59:33;;;;;;;;;;;;;;;-140.72;0.00;51514.38;4987908;28;19924;-67
2022/08/03 12:02:11;;;;;;;;;;;;;;;-140.72;0.00;51477.88;4988081;28;19928;-66
2022/08/03 12:04:50;;;;;;;;;;;;;;;-140.72;0.00;51532.63;4985908;28;19934;-66
2022/08/03 12:07:16;;;;;;;;;;;;;;;-140.72;0.00;51603.63;4978257;28;20377;-67
2022/08/03 12:09:41;;;;;;;;;;;;;;;-140.72;0.00;51508.28;4973957;28;19983;-66
2022/08/03 12:12:06;;;;;;;;;;;;;;;-140.72;0.00;51530.59;4956309;28;19922;-66
2022/08/03 12:14:32;;;;;;;;;;;;;;;-140.72;0.00;51573.22;4966454;28;20472;-66
2022/08/03 12:16:57;;;;;;;;;;;;;;;-140.72;0.00;51559.00;4983940;28;19965;-66
2022/08/03 12:19:22;;;;;;;;;;;;;;;-140.72;0.00;51581.31;4984620;28;19918;-65
2022/08/03 12:21:48;;;;;;;;;;;;;;;-140.72;0.00;51609.72;4986209;28;20354;-66
2022/08/03 12:24:13;;;;;;;;;;;;;;;-140.72;0.00;51575.25;4991999;28;19925;-66
2022/08/03 12:26:47;;;;;;;;;;;;;;;-140.72;0.00;51552.94;4974951;28;19922;-67
2022/08/03 12:29:16;;;;;;;;;;;;;;;-140.72;0.00;51563.06;4987990;28;20374;-65
2022/08/03 12:31:41;;;;;;;;;;;;;;;-140.72;0.00;51595.53;4977680;28;19918;-66
2022/08/03 12:34:08;;;;;;;;;;;;;;;-140.72;0.00;51638.13;4958604;28;19922;-66